Time,TemperatureF,DewpointF,PressureIn,WindDirection,WindDirectionDegrees,WindSpeedMPH,WindSpeedGustMPH,Humidity,HourlyPrecipIn,Conditions,Clouds,dailyrainin,SoftwareType,DateUTC
2013-05-14 00:00:00,59.3,39.6,29.63,SSE,151,23.0,23.0,48,0.00,,,0.01,VWS V15.00,2013-05-14 05:00:00,
2013-05-14 00:01:00,59.3,41.7,29.62,SSE,147,12.0,18.0,52,0.00,,BKN110,0.00,VWS V14.01,2013-05-14 05:01:00,
2013-05-14 00:06:00,59.0,41.4,29.62,SSE,147,13.0,18.0,52,0.00,,BKN110,0.00,VWS V14.01,2013-05-14 05:06:00,
2013-05-14 00:11:00,58.9,41.8,29.62,SSE,150,11.0,19.0,53,0.00,,BKN110,0.00,VWS V14.01,2013-05-14 05:11:00,
2013-05-14 00:15:00,59.5,40.3,29.62,SSE,153,14.0,26.0,49,0.00,,,0.01,VWS V15.00,2013-05-14 05:15:00,
2013-05-14 00:16:00,58.7,43.1,29.62,SSE,150,12.0,18.0,56,0.00,,BKN110,0.00,VWS V14.01,2013-05-14 05:16:00,
2013-05-14 00:21:00,58.4,42.3,29.62,SSE,152,11.0,18.0,55,0.00,,BKN110,0.00,VWS V14.01,2013-05-14 05:21:00,
2013-05-14 00:26:00,58.3,41.8,29.62,SSE,156,10.0,18.0,54,0.00,,BKN110,0.00,VWS V14.01,2013-05-14 05:26:00,
2013-05-14 00:30:00,59.5,40.9,29.62,SE,138,17.0,23.0,50,0.00,,,0.01,VWS V15.00,2013-05-14 05:30:00,
2013-05-14 00:31:00,58.0,41.9,29.63,South,169,15.0,16.0,55,0.00,,BKN110,0.00,VWS V14.01,2013-05-14 05:31:00,
2013-05-14 00:36:00,57.8,41.8,29.63,SSE,156,10.0,16.0,55,0.00,,BKN110,0.00,VWS V14.01,2013-05-14 05:36:00,
2013-05-14 00:41:00,57.8,42.2,29.63,SSE,157,4.0,21.0,56,0.00,,BKN110,0.00,VWS V14.01,2013-05-14 05:41:00,
2013-05-14 00:45:00,59.3,41.2,29.62,SE,139,13.0,22.0,51,0.00,,,0.01,VWS V15.00,2013-05-14 05:45:00,
2013-05-14 00:46:00,57.0,41.9,29.63,SSE,162,6.0,7.0,57,0.00,,BKN110,0.00,VWS V14.01,2013-05-14 05:46:00,
2013-05-14 00:51:00,57.3,41.8,29.63,SSE,164,9.0,13.0,56,0.00,,BKN110,0.00,VWS V14.01,2013-05-14 05:51:00,
2013-05-14 00:56:00,57.2,42.1,29.63,SSE,163,9.0,13.0,57,0.00,,BKN110,0.00,VWS V14.01,2013-05-14 05:56:00,
2013-05-14 01:00:00,59.2,41.6,29.62,SSE,152,16.0,23.0,52,0.00,,,0.00,VWS V15.00,2013-05-14 06:00:00,
2013-05-14 01:01:00,57.0,42.4,29.62,SSE,161,6.0,10.0,58,0.00,,BKN110,0.00,VWS V14.01,2013-05-14 06:01:00,
2013-05-14 01:06:00,57.2,42.6,29.62,SSE,158,6.0,14.0,58,0.00,,BKN110,0.00,VWS V14.01,2013-05-14 06:06:00,
2013-05-14 01:11:00,57.2,42.6,29.62,SSE,161,4.0,14.0,58,0.00,,BKN110,0.00,VWS V14.01,2013-05-14 06:11:00,
2013-05-14 01:15:00,58.9,41.8,29.62,SSE,154,14.0,19.0,53,0.00,,,0.00,VWS V15.00,2013-05-14 06:15:00,
2013-05-14 01:16:00,56.6,42.0,29.62,SSE,161,6.0,6.0,58,0.00,,BKN110,0.00,VWS V14.01,2013-05-14 06:16:00,
2013-05-14 01:21:00,56.2,42.1,29.62,SSE,156,4.0,9.0,59,0.00,,BKN110,0.00,VWS V14.01,2013-05-14 06:21:00,
2013-05-14 01:27:00,55.6,42.0,29.62,SSE,156,4.0,9.0,60,0.00,,BKN110,0.00,VWS V14.01,2013-05-14 06:27:00,
2013-05-14 01:30:00,58.0,41.9,29.63,South,172,10.0,18.0,55,0.00,,,0.00,VWS V15.00,2013-05-14 06:30:00,
2013-05-14 01:32:00,55.0,42.2,29.62,SSE,153,1.0,5.0,62,0.00,,BKN110,0.00,VWS V14.01,2013-05-14 06:32:00,
2013-05-14 01:37:00,54.4,41.7,29.62,SSE,153,3.0,6.0,62,0.00,,BKN110,0.00,VWS V14.01,2013-05-14 06:37:00,
2013-05-14 01:42:00,53.9,42.0,29.62,SSE,153,3.0,6.0,64,0.00,,BKN110,0.00,VWS V14.01,2013-05-14 06:42:00,
2013-05-14 01:45:00,57.3,41.8,29.63,SSE,164,3.0,21.0,56,0.00,,,0.00,VWS V15.00,2013-05-14 06:45:00,
2013-05-14 01:47:00,53.6,42.1,29.63,SSE,153,3.0,4.0,65,0.00,,BKN110,0.00,VWS V14.01,2013-05-14 06:47:00,
2013-05-14 01:52:00,53.5,41.6,29.63,SSE,153,0.0,4.0,64,0.00,,BKN110,0.00,VWS V14.01,2013-05-14 06:52:00,
2013-05-14 01:57:00,53.2,41.8,29.63,SSE,153,0.0,4.0,65,0.00,,BKN110,0.00,VWS V14.01,2013-05-14 06:57:00,
2013-05-14 02:00:00,57.0,42.4,29.62,SSE,167,6.0,13.0,58,0.00,,,0.00,VWS V15.00,2013-05-14 07:00:00,
2013-05-14 02:02:00,53.1,41.7,29.63,SSE,153,0.0,0.0,65,0.00,,SCT110,0.00,VWS V14.01,2013-05-14 07:02:00,
2013-05-14 02:07:00,52.8,41.8,29.63,SSE,153,0.0,0.0,66,0.00,,SCT110,0.00,VWS V14.01,2013-05-14 07:07:00,
2013-05-14 02:14:00,52.3,41.7,29.64,SSE,153,0.0,0.0,67,0.00,,SCT110,0.00,VWS V14.01,2013-05-14 07:14:00,
2013-05-14 02:15:00,56.7,42.1,29.62,SSE,161,5.0,14.0,58,0.00,,,0.00,VWS V15.00,2013-05-14 07:15:00,
2013-05-14 02:19:00,51.9,41.7,29.64,SSE,153,0.0,0.0,68,0.00,,SCT110,0.00,VWS V14.01,2013-05-14 07:19:00,
2013-05-14 02:24:00,51.7,41.9,29.64,SSE,153,0.0,0.0,69,0.00,,SCT110,0.00,VWS V14.01,2013-05-14 07:24:00,
2013-05-14 02:29:00,51.3,41.5,29.64,SSE,153,0.0,0.0,69,0.00,,SCT110,0.00,VWS V14.01,2013-05-14 07:29:00,
2013-05-14 02:30:00,55.3,41.7,29.62,SSE,153,4.0,9.0,60,0.00,,,0.00,VWS V15.00,2013-05-14 07:30:00,
2013-05-14 02:34:00,50.8,41.8,29.64,SSE,153,0.0,0.0,71,0.00,,SCT110,0.00,VWS V14.01,2013-05-14 07:34:00,
2013-05-14 02:39:00,50.8,41.8,29.64,SSE,153,0.0,0.0,71,0.00,,SCT110,0.00,VWS V14.01,2013-05-14 07:39:00,
2013-05-14 02:44:00,50.8,41.8,29.64,SSE,153,0.0,0.0,71,0.00,,SCT110,0.00,VWS V14.01,2013-05-14 07:44:00,
2013-05-14 02:45:00,53.8,41.9,29.63,SSE,153,1.0,6.0,64,0.00,,,0.00,VWS V15.00,2013-05-14 07:45:00,
2013-05-14 02:49:00,50.2,41.2,29.64,SSE,153,0.0,0.0,71,0.00,,SCT110,0.00,VWS V14.01,2013-05-14 07:49:00,
2013-05-14 02:54:00,49.6,41.0,29.64,SSE,153,0.0,0.0,72,0.00,,SCT110,0.00,VWS V14.01,2013-05-14 07:54:00,
2013-05-14 02:59:00,49.2,41.3,29.63,SSE,153,0.0,0.0,74,0.00,,SCT110,0.00,VWS V14.01,2013-05-14 07:59:00,
2013-05-14 03:00:00,53.1,41.7,29.63,SSE,153,0.0,4.0,65,0.00,,,0.00,VWS V15.00,2013-05-14 08:00:00,
2013-05-14 03:04:00,49.1,41.2,29.63,SSE,153,0.0,0.0,74,0.00,,SCT110,0.00,VWS V14.01,2013-05-14 08:04:00,
2013-05-14 03:09:00,48.9,41.3,29.63,SSE,153,0.0,0.0,75,0.00,,SCT110,0.00,VWS V14.01,2013-05-14 08:09:00,
2013-05-14 03:14:00,48.6,41.0,29.64,SSE,153,0.0,0.0,75,0.00,,SCT110,0.00,VWS V14.01,2013-05-14 08:14:00,
2013-05-14 03:15:00,52.2,41.6,29.64,SSE,153,0.0,0.0,67,0.00,,,0.00,VWS V15.00,2013-05-14 08:15:00,
2013-05-14 03:19:00,48.2,40.7,29.64,SSE,153,0.0,0.0,75,0.00,,SCT110,0.00,VWS V14.01,2013-05-14 08:19:00,
2013-05-14 03:24:00,47.6,40.1,29.64,SSE,153,0.0,0.0,75,0.00,,SCT110,0.00,VWS V14.01,2013-05-14 08:24:00,
2013-05-14 03:29:00,47.0,40.2,29.64,SSE,153,0.0,0.0,77,0.00,,SCT110,0.00,VWS V14.01,2013-05-14 08:29:00,
2013-05-14 03:30:00,51.3,41.5,29.64,SSE,153,0.0,0.0,69,0.00,,OVC016,0.00,VWS V15.00,2013-05-14 08:30:00,
2013-05-14 03:34:00,46.5,40.0,29.64,SSE,153,0.0,0.0,78,0.00,,SCT110,0.00,VWS V14.01,2013-05-14 08:34:00,
2013-05-14 03:39:00,46.2,40.1,29.64,SSE,153,0.0,0.0,79,0.00,,SCT110,0.00,VWS V14.01,2013-05-14 08:39:00,
2013-05-14 03:44:00,46.2,40.1,29.64,SSE,153,0.0,0.0,79,0.00,,SCT110,0.00,VWS V14.01,2013-05-14 08:44:00,
2013-05-14 03:45:00,50.8,41.8,29.64,SSE,153,0.0,0.0,71,0.00,,,0.00,VWS V15.00,2013-05-14 08:45:00,
2013-05-14 03:49:00,46.2,40.4,29.64,SSE,153,0.0,0.0,80,0.00,,SCT110,0.00,VWS V14.01,2013-05-14 08:49:00,
2013-05-14 03:54:00,46.2,40.7,29.64,SSE,153,0.0,0.0,81,0.00,,SCT110,0.00,VWS V14.01,2013-05-14 08:54:00,
2013-05-14 03:59:00,46.1,40.0,29.64,SSE,153,0.0,0.0,79,0.00,,SCT110,0.00,VWS V14.01,2013-05-14 08:59:00,
2013-05-14 04:00:00,49.2,41.3,29.63,SSE,153,0.0,0.0,74,0.00,,,0.00,VWS V15.00,2013-05-14 09:00:00,
2013-05-14 04:04:00,45.8,39.7,29.64,SSE,153,3.0,4.0,79,0.00,,SCT110,0.00,VWS V14.01,2013-05-14 09:04:00,
2013-05-14 04:09:00,45.5,40.0,29.64,SSE,153,3.0,4.0,81,0.00,,SCT110,0.00,VWS V14.01,2013-05-14 09:09:00,
2013-05-14 04:14:00,45.7,40.2,29.64,SSE,153,2.0,4.0,81,0.00,,SCT110,0.00,VWS V14.01,2013-05-14 09:14:00,
2013-05-14 04:15:00,48.6,41.0,29.64,SSE,153,0.0,0.0,75,0.00,,,0.00,VWS V15.00,2013-05-14 09:15:00,
2013-05-14 04:19:00,45.5,40.0,29.64,SSE,153,1.0,2.0,81,0.00,,SCT110,0.00,VWS V14.01,2013-05-14 09:19:00,
2013-05-14 04:24:00,45.4,39.9,29.64,SSE,153,3.0,3.0,81,0.00,,SCT110,0.00,VWS V14.01,2013-05-14 09:24:00,
2013-05-14 04:29:00,44.9,39.4,29.63,SSE,153,3.0,3.0,81,0.00,,SCT110,0.00,VWS V14.01,2013-05-14 09:29:00,
2013-05-14 04:30:00,47.0,40.2,29.64,SSE,153,0.0,0.0,77,0.00,,,0.00,VWS V15.00,2013-05-14 09:30:00,
2013-05-14 04:35:00,44.6,39.5,29.63,SSE,153,1.0,3.0,82,0.00,,SCT110,0.00,VWS V14.01,2013-05-14 09:35:00,
2013-05-14 04:40:00,44.5,39.4,29.63,SSE,153,2.0,3.0,82,0.00,,SCT110,0.00,VWS V14.01,2013-05-14 09:40:00,
2013-05-14 04:45:00,44.3,39.5,29.63,SSE,153,3.0,3.0,83,0.00,,SCT110,0.00,VWS V14.01,2013-05-14 09:45:00,
2013-05-14 04:50:00,44.2,39.7,29.63,SSE,153,3.0,3.0,84,0.00,,SCT110,0.00,VWS V14.01,2013-05-14 09:50:00,
2013-05-14 04:55:00,44.1,39.6,29.63,SSE,153,2.0,3.0,84,0.00,,SCT110,0.00,VWS V14.01,2013-05-14 09:55:00,
2013-05-14 05:00:00,43.9,39.7,29.64,SSE,153,2.0,3.0,85,0.00,,SCT110,0.00,VWS V14.01,2013-05-14 10:00:00,
2013-05-14 05:05:00,43.6,39.1,29.64,SSE,153,2.0,3.0,84,0.00,,SCT110,0.00,VWS V14.01,2013-05-14 10:05:00,
2013-05-14 05:10:00,43.2,38.7,29.64,SSE,153,4.0,5.0,84,0.00,,SCT110,0.00,VWS V14.01,2013-05-14 10:10:00,
2013-05-14 05:15:00,42.9,38.4,29.64,SSE,153,4.0,5.0,84,0.00,,SCT110,0.00,VWS V14.01,2013-05-14 10:15:00,
2013-05-14 05:21:00,42.2,37.4,29.64,SSE,153,4.0,5.0,83,0.00,,SCT110,0.00,VWS V14.01,2013-05-14 10:21:00,
2013-05-14 05:26:00,41.8,37.3,29.64,SSE,153,4.0,5.0,84,0.00,,SCT110,0.00,VWS V14.01,2013-05-14 10:26:00,
2013-05-14 05:30:00,44.9,39.4,29.63,SSE,153,3.0,3.0,81,0.00,,,0.00,VWS V15.00,2013-05-14 10:30:00,
2013-05-14 05:31:00,41.5,37.3,29.64,SSE,153,3.0,3.0,85,0.00,,SCT110,0.00,VWS V14.01,2013-05-14 10:31:00,
2013-05-14 05:36:00,41.5,37.6,29.64,SSE,153,2.0,3.0,86,0.00,,SCT110,0.00,VWS V14.01,2013-05-14 10:36:00,
2013-05-14 05:41:00,41.8,38.2,29.64,SSE,153,1.0,3.0,87,0.00,,SCT110,0.00,VWS V14.01,2013-05-14 10:41:00,
2013-05-14 05:45:00,44.3,39.5,29.63,SSE,153,2.0,3.0,83,0.00,,,0.00,VWS V15.00,2013-05-14 10:45:00,
2013-05-14 05:46:00,41.9,38.3,29.64,SSE,153,0.0,1.0,87,0.00,,SCT110,0.00,VWS V14.01,2013-05-14 10:46:00,
2013-05-14 05:51:00,42.1,38.5,29.64,SSE,153,0.0,1.0,87,0.00,,SCT110,0.00,VWS V14.01,2013-05-14 10:51:00,
2013-05-14 05:56:00,42.2,38.6,29.64,SSE,153,1.0,1.0,87,0.00,,SCT110,0.00,VWS V14.01,2013-05-14 10:56:00,
2013-05-14 06:00:00,43.9,39.7,29.64,SSE,153,3.0,3.0,85,0.00,,,0.00,VWS V15.00,2013-05-14 11:00:00,
2013-05-14 06:01:00,42.2,38.6,29.64,SSE,153,2.0,3.0,87,0.00,,SCT110,0.00,VWS V14.01,2013-05-14 11:01:00,
2013-05-14 06:06:00,42.1,38.5,29.64,SSE,153,5.0,5.0,87,0.00,,SCT110,0.00,VWS V14.01,2013-05-14 11:06:00,
2013-05-14 06:11:00,41.9,38.3,29.64,SSE,153,4.0,6.0,87,0.00,,SCT110,0.00,VWS V14.01,2013-05-14 11:11:00,
2013-05-14 06:15:00,42.9,38.4,29.64,SSE,153,4.0,5.0,84,0.00,,,0.00,VWS V15.00,2013-05-14 11:15:00,
2013-05-14 06:16:00,41.8,38.2,29.64,SSE,153,4.0,5.0,87,0.00,,SCT110,0.00,VWS V14.01,2013-05-14 11:16:00,
2013-05-14 06:21:00,41.8,38.5,29.64,SSE,153,5.0,5.0,88,0.00,,SCT110,0.00,VWS V14.01,2013-05-14 11:21:00,
2013-05-14 06:26:00,42.1,38.8,29.64,SSE,153,6.0,7.0,88,0.00,,SCT110,0.00,VWS V14.01,2013-05-14 11:26:00,
2013-05-14 06:30:00,41.5,37.3,29.64,SSE,153,2.0,5.0,85,0.00,,,0.00,VWS V15.00,2013-05-14 11:30:00,
2013-05-14 06:31:00,42.1,38.8,29.63,SSE,153,6.0,7.0,88,0.00,,SCT110,0.00,VWS V14.01,2013-05-14 11:31:00,
2013-05-14 06:36:00,42.2,38.9,29.63,SSE,153,4.0,7.0,88,0.00,,SCT110,0.00,VWS V14.01,2013-05-14 11:36:00,
2013-05-14 06:41:00,42.3,38.7,29.63,SSE,153,6.0,7.0,87,0.00,,SCT120,0.00,VWS V14.01,2013-05-14 11:41:00,
2013-05-14 06:45:00,41.9,38.3,29.64,SSE,153,0.0,3.0,87,0.00,,,0.00,VWS V15.00,2013-05-14 11:45:00,
2013-05-14 06:46:00,42.6,39.0,29.63,SSE,153,4.0,6.0,87,0.00,,SCT120,0.00,VWS V14.01,2013-05-14 11:46:00,
2013-05-14 06:51:00,42.9,39.3,29.63,SSE,153,5.0,6.0,87,0.00,,SCT120,0.00,VWS V14.01,2013-05-14 11:51:00,
2013-05-14 06:56:00,43.3,39.4,29.63,SSE,153,5.0,6.0,86,0.00,,SCT120,0.00,VWS V14.01,2013-05-14 11:56:00,
2013-05-14 07:00:00,42.2,38.6,29.64,SSE,153,1.0,2.0,87,0.00,,,0.00,VWS V15.00,2013-05-14 12:00:00,
2013-05-14 07:01:00,43.9,40.0,29.61,SSE,153,6.0,7.0,86,0.00,,SCT120,0.00,VWS V14.01,2013-05-14 12:01:00,
2013-05-14 07:06:00,44.3,40.1,29.61,SSE,153,4.0,7.0,85,0.00,,SCT120,0.00,VWS V14.01,2013-05-14 12:06:00,
2013-05-14 07:11:00,44.9,40.1,29.61,SSE,153,3.0,7.0,83,0.00,,SCT095,0.00,VWS V14.01,2013-05-14 12:11:00,
2013-05-14 07:15:00,41.8,38.2,29.64,SSE,153,5.0,6.0,87,0.00,,,0.00,VWS V15.00,2013-05-14 12:15:00,
2013-05-14 07:16:00,45.5,40.7,29.61,SSE,153,4.0,5.0,83,0.00,,SCT095,0.00,VWS V14.01,2013-05-14 12:16:00,
2013-05-14 07:21:00,46.4,40.9,29.61,SSE,153,4.0,6.0,81,0.00,,SCT095,0.00,VWS V14.01,2013-05-14 12:21:00,
2013-05-14 07:26:00,47.9,43.0,29.61,SSE,153,4.0,6.0,83,0.00,,SCT095,0.00,VWS V14.01,2013-05-14 12:26:00,
2013-05-14 07:30:00,42.1,38.8,29.63,SSE,153,4.0,7.0,88,0.00,,,0.00,VWS V15.00,2013-05-14 12:30:00,
2013-05-14 07:31:00,48.8,42.6,29.61,SSE,153,3.0,5.0,79,0.00,,SCT095,0.00,VWS V14.01,2013-05-14 12:31:00,
2013-05-14 07:36:00,49.9,43.3,29.61,SSE,153,2.0,5.0,78,0.00,,SCT095,0.00,VWS V14.01,2013-05-14 12:36:00,
2013-05-14 07:42:00,50.8,43.2,29.61,SSE,153,2.0,5.0,75,0.00,,SCT095,0.00,VWS V14.01,2013-05-14 12:42:00,
2013-05-14 07:45:00,42.5,38.9,29.63,SSE,153,4.0,7.0,87,0.00,,,0.00,VWS V15.00,2013-05-14 12:45:00,
2013-05-14 07:47:00,51.7,43.3,29.62,SSE,154,6.0,6.0,73,0.00,,SCT095,0.00,VWS V14.01,2013-05-14 12:47:00,
2013-05-14 07:52:00,53.2,45.1,29.62,South,184,7.0,7.0,74,0.00,,SCT095,0.00,VWS V14.01,2013-05-14 12:52:00,
2013-05-14 07:57:00,54.5,46.4,29.62,SSW,193,5.0,9.0,74,0.00,,SCT095,0.00,VWS V14.01,2013-05-14 12:57:00,
2013-05-14 08:00:00,43.6,39.7,29.61,SSE,153,5.0,6.0,86,0.00,,,0.00,VWS V15.00,2013-05-14 13:00:00,
2013-05-14 08:02:00,56.0,47.1,29.62,SSW,194,4.0,5.0,72,0.00,,SCT095,0.00,VWS V14.01,2013-05-14 13:02:00,
2013-05-14 08:07:00,58.1,47.2,29.62,SSW,193,5.0,7.0,67,0.00,,SCT095,0.00,VWS V14.01,2013-05-14 13:07:00,
2013-05-14 08:12:00,59.6,47.4,29.62,SSW,193,6.0,8.0,64,0.00,,CLR,0.00,VWS V14.01,2013-05-14 13:12:00,
2013-05-14 08:15:00,45.2,40.3,29.61,SSE,153,4.0,7.0,83,0.00,,,0.00,VWS V15.00,2013-05-14 13:15:00,
2013-05-14 08:17:00,60.4,47.8,29.62,SSW,193,3.0,5.0,63,0.00,,CLR,0.00,VWS V14.01,2013-05-14 13:17:00,
2013-05-14 08:22:00,61.0,47.9,29.62,SSW,193,3.0,6.0,62,0.00,,CLR,0.00,VWS V14.01,2013-05-14 13:22:00,
2013-05-14 08:27:00,61.5,48.4,29.62,SSW,193,6.0,7.0,62,0.00,,CLR,0.00,VWS V14.01,2013-05-14 13:27:00,
2013-05-14 08:30:00,48.3,42.8,29.61,SSE,153,5.0,6.0,81,0.00,,,0.00,VWS V15.00,2013-05-14 13:30:00,
2013-05-14 08:32:00,62.6,48.5,29.63,SSW,196,3.0,9.0,60,0.00,,CLR,0.00,VWS V14.01,2013-05-14 13:32:00,
2013-05-14 08:37:00,63.4,48.4,29.63,SSW,199,8.0,11.0,58,0.00,,CLR,0.00,VWS V14.01,2013-05-14 13:37:00,
2013-05-14 08:42:00,64.2,48.7,29.63,SSW,206,9.0,12.0,57,0.00,,SCT085,0.00,VWS V14.01,2013-05-14 13:42:00,
2013-05-14 08:45:00,51.3,43.7,29.62,SSE,153,5.0,6.0,75,0.00,,,0.00,VWS V15.00,2013-05-14 13:45:00,
2013-05-14 08:47:00,65.0,48.5,29.62,South,189,10.0,12.0,55,0.00,,SCT085,0.00,VWS V14.01,2013-05-14 13:47:00,
2013-05-14 08:52:00,66.0,48.9,29.62,South,184,11.0,14.0,54,0.00,,SCT085,0.00,VWS V14.01,2013-05-14 13:52:00,
2013-05-14 08:57:00,67.3,49.1,29.62,SSE,166,13.0,14.0,52,0.00,,SCT085,0.00,VWS V14.01,2013-05-14 13:57:00,
2013-05-14 09:00:00,55.4,46.9,29.62,SSW,194,1.0,9.0,73,0.00,,,0.00,VWS V15.00,2013-05-14 14:00:00,
2013-05-14 09:02:00,67.3,48.6,29.61,South,170,9.0,12.0,51,0.00,,CLR,0.00,VWS V14.01,2013-05-14 14:02:00,
2013-05-14 09:07:00,67.3,48.6,29.61,SSE,155,12.0,13.0,51,0.00,,CLR,0.00,VWS V14.01,2013-05-14 14:07:00,
2013-05-14 09:12:00,67.3,48.6,29.61,SSE,165,7.0,13.0,51,0.00,,CLR,0.00,VWS V14.01,2013-05-14 14:12:00,
2013-05-14 09:15:00,60.1,47.5,29.62,SSW,193,4.0,8.0,63,0.00,,,0.00,VWS V15.00,2013-05-14 14:15:00,
2013-05-14 09:17:00,67.3,49.1,29.60,SSE,155,6.0,10.0,52,0.00,,CLR,0.00,VWS V14.01,2013-05-14 14:17:00,
2013-05-14 09:22:00,67.8,49.5,29.60,SSE,155,4.0,10.0,52,0.00,,CLR,0.00,VWS V14.01,2013-05-14 14:22:00,
2013-05-14 09:27:00,68.1,49.3,29.60,SSE,154,3.0,10.0,51,0.00,,CLR,0.00,VWS V14.01,2013-05-14 14:27:00,
2013-05-14 09:30:00,62.1,48.5,29.63,SSW,196,6.0,8.0,61,0.00,,,0.00,VWS V15.00,2013-05-14 14:30:00,
2013-05-14 09:32:00,68.3,50.0,29.61,SSE,154,0.0,0.0,52,0.00,,CLR,0.00,VWS V14.01,2013-05-14 14:32:00,
2013-05-14 09:37:00,68.4,49.1,29.61,SSE,154,1.0,3.0,50,0.00,,CLR,0.00,VWS V14.01,2013-05-14 14:37:00,
2013-05-14 09:42:00,68.4,50.1,29.61,SSE,154,0.0,3.0,52,0.00,,CLR,0.00,VWS V14.01,2013-05-14 14:42:00,
2013-05-14 09:45:00,64.7,49.1,29.62,South,191,8.0,12.0,57,0.00,,,0.00,VWS V15.00,2013-05-14 14:45:00,
2013-05-14 09:47:00,68.1,49.3,29.64,SE,133,4.0,5.0,51,0.00,,CLR,0.00,VWS V14.01,2013-05-14 14:47:00,
2013-05-14 09:52:00,67.8,49.5,29.64,ESE,106,5.0,5.0,52,0.00,,CLR,0.00,VWS V14.01,2013-05-14 14:52:00,
2013-05-14 09:57:00,67.4,49.2,29.64,North,358,6.0,7.0,52,0.00,,CLR,0.00,VWS V14.01,2013-05-14 14:57:00,
2013-05-14 10:00:00,67.3,49.1,29.61,South,176,11.0,14.0,52,0.00,,,0.00,VWS V15.00,2013-05-14 15:00:00,
2013-05-14 10:02:00,66.9,49.2,29.67,NNW,339,8.0,11.0,53,0.00,,CLR,0.00,VWS V14.01,2013-05-14 15:02:00,
2013-05-14 10:07:00,66.6,49.0,29.67,NNW,341,8.0,11.0,53,0.00,,CLR,0.00,VWS V14.01,2013-05-14 15:07:00,
2013-05-14 10:13:00,66.3,48.7,29.67,NNW,341,6.0,11.0,53,0.00,,CLR,0.00,VWS V14.01,2013-05-14 15:13:00,
2013-05-14 10:15:00,67.3,49.1,29.60,SSE,156,4.0,13.0,52,0.00,,,0.00,VWS V15.00,2013-05-14 15:15:00,
2013-05-14 10:18:00,66.3,49.2,29.71,North,2,9.0,11.0,54,0.00,,CLR,0.00,VWS V14.01,2013-05-14 15:18:00,
2013-05-14 10:23:00,66.4,48.8,29.71,North,4,12.0,17.0,53,0.00,,CLR,0.00,VWS V14.01,2013-05-14 15:23:00,
2013-05-14 10:28:00,66.3,49.2,29.71,North,2,16.0,17.0,54,0.00,,CLR,0.00,VWS V14.01,2013-05-14 15:28:00,
2013-05-14 10:30:00,68.1,49.3,29.61,SSE,154,0.0,10.0,51,0.00,,,0.00,VWS V15.00,2013-05-14 15:30:00,
2013-05-14 10:33:00,65.6,47.5,29.73,NNW,334,10.0,16.0,52,0.00,,CLR,0.00,VWS V14.01,2013-05-14 15:33:00,
2013-05-14 10:38:00,64.7,48.7,29.73,NNW,340,9.0,16.0,56,0.00,,CLR,0.00,VWS V14.01,2013-05-14 15:38:00,
2013-05-14 10:43:00,63.7,50.0,29.73,North,359,9.0,16.0,61,0.00,,-RA,0.00,VWS V14.01,2013-05-14 15:43:00,
2013-05-14 10:45:00,68.3,48.4,29.64,SSE,154,3.0,3.0,49,0.00,,,0.00,VWS V15.00,2013-05-14 15:45:00,
2013-05-14 10:48:00,63.1,49.5,29.72,NE,38,8.0,13.0,61,0.00,,-RA,0.00,VWS V14.01,2013-05-14 15:48:00,
2013-05-14 10:53:00,62.9,48.8,29.72,NE,35,12.0,13.0,60,0.00,,-RA,0.00,VWS V14.01,2013-05-14 15:53:00,
2013-05-14 10:58:00,63.1,48.1,29.72,NE,50,10.0,17.0,58,0.00,,-RA,0.00,VWS V14.01,2013-05-14 15:58:00,
2013-05-14 11:00:00,67.1,48.9,29.67,North,355,7.0,9.0,52,0.00,,,0.00,VWS V15.00,2013-05-14 16:00:00,
2013-05-14 11:03:00,63.2,48.2,29.68,ENE,63,14.0,21.0,58,0.00,,OVC080,0.00,VWS V14.01,2013-05-14 16:03:00,
2013-05-14 11:08:00,63.5,48.5,29.68,ENE,66,9.0,21.0,58,0.00,,OVC080,0.00,VWS V14.01,2013-05-14 16:08:00,
2013-05-14 11:13:00,63.7,48.2,29.68,East,82,16.0,21.0,57,0.00,,OVC080,0.00,VWS V14.01,2013-05-14 16:13:00,
2013-05-14 11:15:00,66.1,49.0,29.71,NNW,335,10.0,12.0,54,0.00,,,0.00,VWS V15.00,2013-05-14 16:15:00,
2013-05-14 11:18:00,64.3,49.2,29.66,ENE,78,10.0,18.0,58,0.00,,OVC080,0.00,VWS V14.01,2013-05-14 16:18:00,
2013-05-14 11:23:00,64.8,49.2,29.66,ESE,104,12.0,18.0,57,0.00,,OVC080,0.00,VWS V14.01,2013-05-14 16:23:00,
2013-05-14 11:28:00,65.2,48.6,29.66,East,90,12.0,19.0,55,0.00,,OVC080,0.00,VWS V14.01,2013-05-14 16:28:00,
2013-05-14 11:30:00,66.1,48.0,29.73,North,359,14.0,17.0,52,0.00,,,0.00,VWS V15.00,2013-05-14 16:30:00,
2013-05-14 11:33:00,65.5,48.4,29.63,ENE,76,10.0,16.0,54,0.00,,OVC080,0.00,VWS V14.01,2013-05-14 16:33:00,
2013-05-14 11:38:00,66.6,49.5,29.63,ESE,108,9.0,16.0,54,0.00,,OVC080,0.00,VWS V14.01,2013-05-14 16:38:00,
2013-05-14 11:43:00,67.4,49.2,29.63,East,87,16.0,17.0,52,0.00,,CLR,0.00,VWS V14.01,2013-05-14 16:43:00,
2013-05-14 11:45:00,63.4,49.3,29.72,NNE,32,10.0,16.0,60,0.00,,,0.00,VWS V15.00,2013-05-14 16:45:00,
2013-05-14 11:48:00,68.8,49.4,29.60,East,99,3.0,17.0,50,0.00,,CLR,0.00,VWS V14.01,2013-05-14 16:48:00,
2013-05-14 11:53:00,70.6,49.4,29.60,East,94,13.0,17.0,47,0.00,,CLR,0.00,VWS V14.01,2013-05-14 16:53:00,
2013-05-14 11:58:00,72.0,49.5,29.60,East,83,1.0,19.0,45,0.00,,CLR,0.00,VWS V14.01,2013-05-14 16:58:00,
2013-05-14 12:00:00,63.1,48.6,29.68,NE,54,14.0,17.0,59,0.00,,,0.00,VWS V15.00,2013-05-14 17:00:00,
2013-05-14 12:03:00,74.2,47.7,29.57,ENE,78,10.0,19.0,39,0.00,,CLR,0.00,VWS V14.01,2013-05-14 17:03:00,
2013-05-14 12:08:00,74.7,47.4,29.57,SE,125,11.0,19.0,38,0.00,,CLR,0.00,VWS V14.01,2013-05-14 17:08:00,
2013-05-14 12:13:00,76.0,46.4,29.57,ESE,104,12.0,22.0,35,0.00,,CLR,0.00,VWS V14.01,2013-05-14 17:13:00,
2013-05-14 12:15:00,63.9,48.8,29.66,East,82,15.0,21.0,58,0.00,,,0.00,VWS V15.00,2013-05-14 17:15:00,
2013-05-14 12:18:00,75.6,46.0,29.56,East,98,9.0,17.0,35,0.00,,CLR,0.00,VWS V14.01,2013-05-14 17:18:00,
2013-05-14 12:23:00,75.8,46.2,29.56,ENE,78,7.0,17.0,35,0.00,,CLR,0.00,VWS V14.01,2013-05-14 17:23:00,
2013-05-14 12:28:00,77.2,46.7,29.56,ESE,109,5.0,17.0,34,0.00,,CLR,0.00,VWS V14.01,2013-05-14 17:28:00,
2013-05-14 12:30:00,65.2,49.1,29.63,ESE,116,11.0,19.0,56,0.00,,,0.00,VWS V15.00,2013-05-14 17:30:00,
2013-05-14 12:33:00,78.5,45.4,29.54,East,96,7.0,17.0,31,0.00,,CLR,0.00,VWS V14.01,2013-05-14 17:33:00,
2013-05-14 12:38:00,79.4,43.5,29.54,East,90,17.0,21.0,28,0.00,,CLR,0.00,VWS V14.01,2013-05-14 17:38:00,
2013-05-14 12:43:00,79.9,43.9,29.54,ESE,106,9.0,21.0,28,0.00,,CLR,0.00,VWS V14.01,2013-05-14 17:43:00,
2013-05-14 12:45:00,67.6,48.8,29.60,East,92,8.0,17.0,51,0.00,,,0.00,VWS V15.00,2013-05-14 17:45:00,
2013-05-14 12:48:00,81.2,45.0,29.52,SE,139,7.0,18.0,28,0.00,,CLR,0.00,VWS V14.01,2013-05-14 17:48:00,
2013-05-14 12:53:00,82.2,44.9,29.52,ESE,119,19.0,23.0,27,0.00,,CLR,0.00,VWS V14.01,2013-05-14 17:53:00,
2013-05-14 12:58:00,81.6,45.4,29.52,SE,129,12.0,23.0,28,0.00,,CLR,0.00,VWS V14.01,2013-05-14 17:58:00,
2013-05-14 13:00:00,72.7,48.9,29.57,East,94,5.0,19.0,43,0.00,,,0.00,VWS V15.00,2013-05-14 18:00:00,
2013-05-14 13:03:00,82.2,45.9,29.51,East,100,4.0,29.0,28,0.00,,OVC080,0.00,VWS V14.01,2013-05-14 18:03:00,
2013-05-14 13:09:00,82.8,46.4,29.51,ESE,113,18.0,29.0,28,0.00,,OVC080,0.00,VWS V14.01,2013-05-14 18:09:00,
2013-05-14 13:14:00,82.6,46.2,29.51,ESE,113,14.0,29.0,28,0.00,,CLR,0.00,VWS V14.01,2013-05-14 18:14:00,
2013-05-14 13:15:00,75.8,46.2,29.56,SE,124,14.0,22.0,35,0.00,,,0.00,VWS V15.00,2013-05-14 18:15:00,
2013-05-14 13:19:00,83.2,46.7,29.50,SE,135,16.0,22.0,28,0.00,,CLR,0.00,VWS V14.01,2013-05-14 18:19:00,
2013-05-14 13:24:00,83.0,46.6,29.50,SE,125,6.0,24.0,28,0.00,,CLR,0.00,VWS V14.01,2013-05-14 18:24:00,
2013-05-14 13:29:00,83.8,46.3,29.50,SE,144,10.0,24.0,27,0.00,,CLR,0.00,VWS V14.01,2013-05-14 18:29:00,
2013-05-14 13:30:00,77.6,46.2,29.54,ESE,115,10.0,17.0,33,0.00,,,0.00,VWS V15.00,2013-05-14 18:30:00,
2013-05-14 13:34:00,84.9,47.2,29.50,SSE,158,23.0,23.0,27,0.00,,CLR,0.00,VWS V14.01,2013-05-14 18:34:00,
2013-05-14 13:39:00,84.9,48.2,29.50,SE,144,18.0,23.0,28,0.00,,CLR,0.00,VWS V14.01,2013-05-14 18:39:00,
2013-05-14 13:44:00,84.9,47.2,29.50,SSE,168,16.0,24.0,27,0.00,,CLR,0.00,VWS V14.01,2013-05-14 18:44:00,
2013-05-14 13:45:00,80.1,43.1,29.52,ESE,109,6.0,21.0,27,0.00,,,0.00,VWS V15.00,2013-05-14 18:45:00,
2013-05-14 13:49:00,85.1,47.4,29.50,SE,137,20.0,25.0,27,0.00,,CLR,0.00,VWS V14.01,2013-05-14 18:49:00,
2013-05-14 13:54:00,84.9,47.2,29.50,SE,125,14.0,25.0,27,0.00,,CLR,0.00,VWS V14.01,2013-05-14 18:54:00,
2013-05-14 13:59:00,84.5,47.8,29.49,SE,144,7.0,25.0,28,0.00,,CLR,0.00,VWS V14.01,2013-05-14 18:59:00,
2013-05-14 14:00:00,81.6,45.4,29.51,SSE,150,17.0,23.0,28,0.00,,,0.00,VWS V15.00,2013-05-14 19:00:00,
2013-05-14 14:04:00,85.7,47.9,29.49,SSE,168,22.0,25.0,27,0.00,,CLR,0.00,VWS V14.01,2013-05-14 19:04:00,
2013-05-14 14:09:00,85.1,47.4,29.49,SE,144,20.0,33.0,27,0.00,,CLR,0.00,VWS V14.01,2013-05-14 19:09:00,
2013-05-14 14:14:00,84.9,48.2,29.49,SSE,147,21.0,33.0,28,0.00,,CLR,0.00,VWS V14.01,2013-05-14 19:14:00,
2013-05-14 14:15:00,82.6,46.2,29.50,ESE,108,11.0,29.0,28,0.00,,,0.00,VWS V15.00,2013-05-14 19:15:00,
2013-05-14 14:19:00,85.3,48.5,29.49,SSE,165,20.0,22.0,28,0.00,,CLR,0.00,VWS V14.01,2013-05-14 19:19:00,
2013-05-14 14:24:00,85.5,48.7,29.49,South,179,26.0,26.0,28,0.00,,CLR,0.00,VWS V14.01,2013-05-14 19:24:00,
2013-05-14 14:29:00,85.9,48.1,29.48,SSE,147,28.0,30.0,27,0.00,,CLR,0.00,VWS V14.01,2013-05-14 19:29:00,
2013-05-14 14:30:00,84.0,47.4,29.50,SSE,153,18.0,24.0,28,0.00,,,0.00,VWS V15.00,2013-05-14 19:30:00,
2013-05-14 14:34:00,85.7,48.9,29.48,SSE,160,21.0,29.0,28,0.00,,CLR,0.00,VWS V14.01,2013-05-14 19:34:00,
2013-05-14 14:39:00,85.7,48.9,29.48,SSE,149,28.0,29.0,28,0.00,,CLR,0.00,VWS V14.01,2013-05-14 19:39:00,
2013-05-14 14:44:00,85.7,48.9,29.48,SSE,165,18.0,29.0,28,0.00,,CLR,0.00,VWS V14.01,2013-05-14 19:44:00,
2013-05-14 14:45:00,84.9,47.2,29.50,SSE,162,14.0,24.0,27,0.00,,,0.00,VWS V15.00,2013-05-14 19:45:00,
2013-05-14 14:49:00,86.1,49.2,29.48,SSE,162,19.0,27.0,28,0.00,,CLR,0.00,VWS V14.01,2013-05-14 19:49:00,
2013-05-14 14:54:00,85.9,50.0,29.48,SSE,149,22.0,27.0,29,0.00,,CLR,0.00,VWS V14.01,2013-05-14 19:54:00,
2013-05-14 14:59:00,86.7,49.7,29.47,SSE,149,15.0,27.0,28,0.00,,CLR,0.00,VWS V14.01,2013-05-14 19:59:00,
2013-05-14 15:00:00,84.3,47.7,29.49,SSE,151,11.0,25.0,28,0.00,,,0.00,VWS V15.00,2013-05-14 20:00:00,
2013-05-14 15:04:00,87.2,50.2,29.47,SSE,160,15.0,19.0,28,0.00,,CLR,0.00,VWS V14.01,2013-05-14 20:04:00,
2013-05-14 15:09:00,88.0,45.6,29.47,SSW,195,21.0,26.0,23,0.00,,CLR,0.00,VWS V14.01,2013-05-14 20:09:00,
2013-05-14 15:14:00,89.0,45.3,29.47,SSW,192,24.0,27.0,22,0.00,,CLR,0.00,VWS V14.01,2013-05-14 20:14:00,
2013-05-14 15:15:00,84.9,48.2,29.49,SE,136,17.0,33.0,28,0.00,,,0.00,VWS V15.00,2013-05-14 20:15:00,
2013-05-14 15:19:00,89.3,45.5,29.47,SSE,158,30.0,33.0,22,0.00,,CLR,0.00,VWS V14.01,2013-05-14 20:19:00,
2013-05-14 15:24:00,89.0,46.4,29.47,SSE,164,18.0,33.0,23,0.00,,CLR,0.00,VWS V14.01,2013-05-14 20:24:00,
2013-05-14 15:29:00,89.5,46.8,29.46,SE,139,19.0,33.0,23,0.00,,CLR,0.00,VWS V14.01,2013-05-14 20:29:00,
2013-05-14 15:30:00,85.9,48.1,29.48,SSE,157,24.0,30.0,27,0.00,,,0.00,VWS V15.00,2013-05-14 20:30:00,
2013-05-14 15:35:00,89.5,46.8,29.46,SSE,165,21.0,24.0,23,0.00,,CLR,0.00,VWS V14.01,2013-05-14 20:35:00,
2013-05-14 15:40:00,89.7,47.0,29.46,South,169,24.0,26.0,23,0.00,,CLR,0.00,VWS V14.01,2013-05-14 20:40:00,
2013-05-14 15:45:00,89.7,47.0,29.45,SSE,165,20.0,22.0,23,0.00,,CLR,0.00,VWS V14.01,2013-05-14 20:45:00,
2013-05-14 15:50:00,90.3,47.5,29.45,SSE,164,19.0,28.0,23,0.00,,CLR,0.00,VWS V14.01,2013-05-14 20:50:00,
2013-05-14 15:55:00,90.5,47.7,29.45,SSE,168,16.0,28.0,23,0.00,,CLR,0.00,VWS V14.01,2013-05-14 20:55:00,
2013-05-14 16:00:00,90.5,47.7,29.44,SSE,153,13.0,18.0,23,0.00,,CLR,0.00,VWS V14.01,2013-05-14 21:00:00,
2013-05-14 16:05:00,90.7,45.4,29.44,South,185,18.0,23.0,21,0.00,,CLR,0.00,VWS V14.01,2013-05-14 21:05:00,
2013-05-14 16:10:00,90.5,48.8,29.44,SSE,164,19.0,25.0,24,0.00,,CLR,0.00,VWS V14.01,2013-05-14 21:10:00,
2013-05-14 16:15:00,90.7,47.8,29.44,SSE,165,17.0,17.0,23,0.00,,CLR,0.00,VWS V14.01,2013-05-14 21:15:00,
2013-05-14 16:20:00,91.4,48.4,29.44,South,173,23.0,23.0,23,0.00,,CLR,0.00,VWS V14.01,2013-05-14 21:20:00,
2013-05-14 16:25:00,91.4,48.4,29.44,SSW,206,14.0,23.0,23,0.00,,CLR,0.00,VWS V14.01,2013-05-14 21:25:00,
2013-05-14 16:30:00,91.6,48.6,29.43,South,182,13.0,13.0,23,0.00,,CLR,0.00,VWS V14.01,2013-05-14 21:30:00,
2013-05-14 16:35:00,91.8,48.8,29.43,South,175,21.0,21.0,23,0.00,,CLR,0.00,VWS V14.01,2013-05-14 21:35:00,
2013-05-14 16:40:00,91.6,48.6,29.43,SSW,212,15.0,22.0,23,0.00,,CLR,0.00,VWS V14.01,2013-05-14 21:40:00,
2013-05-14 16:45:00,92.1,49.0,29.43,South,189,17.0,18.0,23,0.00,,CLR,0.00,VWS V14.01,2013-05-14 21:45:00,
2013-05-14 16:50:00,91.8,48.8,29.43,South,184,15.0,19.0,23,0.00,,CLR,0.00,VWS V14.01,2013-05-14 21:50:00,
2013-05-14 16:55:00,91.6,48.6,29.43,South,185,15.0,19.0,23,0.00,,CLR,0.00,VWS V14.01,2013-05-14 21:55:00,
2013-05-14 17:00:00,91.6,48.6,29.42,SSW,198,13.0,14.0,23,0.00,,CLR,0.00,VWS V14.01,2013-05-14 22:00:00,
2013-05-14 17:05:00,92.1,50.2,29.42,SSW,206,7.0,14.0,24,0.00,,CLR,0.00,VWS V14.01,2013-05-14 22:05:00,
2013-05-14 17:10:00,92.7,49.5,29.42,SSW,199,12.0,14.0,23,0.00,,CLR,0.00,VWS V14.01,2013-05-14 22:10:00,
2013-05-14 17:15:00,93.2,49.9,29.42,SSW,201,18.0,19.0,23,0.00,,CLR,0.00,VWS V14.01,2013-05-14 22:15:00,
2013-05-14 17:20:00,92.9,50.8,29.42,SSW,206,6.0,19.0,24,0.00,,CLR,0.00,VWS V14.01,2013-05-14 22:20:00,
2013-05-14 17:25:00,92.9,49.7,29.42,South,189,11.0,19.0,23,0.00,,CLR,0.00,VWS V14.01,2013-05-14 22:25:00,
2013-05-14 17:30:00,93.2,51.1,29.41,SSW,199,6.0,7.0,24,0.00,,CLR,0.00,VWS V14.01,2013-05-14 22:30:00,
2013-05-14 17:35:00,93.4,51.2,29.41,SW,215,12.0,16.0,24,0.00,,CLR,0.00,VWS V14.01,2013-05-14 22:35:00,
2013-05-14 17:40:00,93.2,49.9,29.41,South,187,10.0,16.0,23,0.00,,CLR,0.00,VWS V14.01,2013-05-14 22:40:00,
2013-05-14 17:45:00,92.9,49.7,29.41,South,171,10.0,11.0,23,0.00,,CLR,0.00,VWS V14.01,2013-05-14 22:45:00,
2013-05-14 17:50:00,92.9,50.8,29.41,SW,218,10.0,14.0,24,0.00,,CLR,0.00,VWS V14.01,2013-05-14 22:50:00,
2013-05-14 17:55:00,92.7,50.7,29.41,SW,222,17.0,18.0,24,0.00,,CLR,0.00,VWS V14.01,2013-05-14 22:55:00,
2013-05-14 18:00:00,92.7,50.7,29.41,SW,214,16.0,16.0,24,0.00,,CLR,0.00,VWS V14.01,2013-05-14 23:00:00,
2013-05-14 18:05:00,92.7,49.5,29.41,SW,229,23.0,27.0,23,0.00,,CLR,0.00,VWS V14.01,2013-05-14 23:05:00,
2013-05-14 18:10:00,92.5,46.9,29.41,WSW,237,14.0,27.0,21,0.00,,CLR,0.00,VWS V14.01,2013-05-14 23:10:00,
2013-05-14 18:15:00,92.7,36.6,29.41,West,262,18.0,26.0,14,0.00,,CLR,0.00,VWS V14.01,2013-05-14 23:15:00,
2013-05-14 18:20:00,92.7,36.6,29.41,WSW,257,22.0,31.0,14,0.00,,CLR,0.00,VWS V14.01,2013-05-14 23:20:00,
2013-05-14 18:25:00,92.7,36.6,29.41,WNW,289,15.0,31.0,14,0.00,,CLR,0.00,VWS V14.01,2013-05-14 23:25:00,
2013-05-14 18:30:00,92.9,50.8,29.41,SSW,203,6.0,19.0,24,0.00,,,0.00,VWS V15.00,2013-05-14 23:30:00,
2013-05-14 18:31:00,92.5,38.2,29.41,West,279,12.0,22.0,15,0.00,,CLR,0.00,VWS V14.01,2013-05-14 23:31:00,
2013-05-14 18:36:00,92.3,38.0,29.41,West,274,10.0,25.0,15,0.00,,CLR,0.00,VWS V14.01,2013-05-14 23:36:00,
2013-05-14 18:41:00,92.1,37.9,29.41,WNW,290,3.0,25.0,15,0.00,,CLR,0.00,VWS V14.01,2013-05-14 23:41:00,
2013-05-14 18:45:00,93.2,49.9,29.41,South,186,10.0,16.0,23,0.00,,,0.00,VWS V15.00,2013-05-14 23:45:00,
2013-05-14 18:46:00,91.4,37.3,29.41,West,261,14.0,23.0,15,0.00,,CLR,0.00,VWS V14.01,2013-05-14 23:46:00,
2013-05-14 18:51:00,90.7,35.0,29.41,WNW,292,11.0,27.0,14,0.00,,CLR,0.00,VWS V14.01,2013-05-14 23:51:00,
2013-05-14 18:56:00,90.3,34.7,29.41,West,281,19.0,28.0,14,0.00,,CLR,0.00,VWS V14.01,2013-05-14 23:56:00,
2013-05-14 19:00:00,92.7,50.7,29.41,SW,232,12.0,18.0,24,0.00,,,0.00,VWS V15.00,2013-05-15 00:00:00,
2013-05-14 19:01:00,89.9,34.4,29.41,West,270,5.0,25.0,14,0.00,,CLR,0.00,VWS V14.01,2013-05-15 00:01:00,
2013-05-14 19:06:00,89.5,35.8,29.41,WNW,296,15.0,32.0,15,0.00,,CLR,0.00,VWS V14.01,2013-05-15 00:06:00,
2013-05-14 19:11:00,89.0,33.7,29.41,West,275,6.0,32.0,14,0.00,,CLR,0.00,VWS V14.01,2013-05-15 00:11:00,
2013-05-14 19:15:00,92.5,38.2,29.41,West,269,14.0,28.0,15,0.00,,,0.00,VWS V15.00,2013-05-15 00:15:00,
2013-05-14 19:16:00,88.6,35.1,29.42,WNW,289,17.0,19.0,15,0.00,,CLR,0.00,VWS V14.01,2013-05-15 00:16:00,
2013-05-14 19:21:00,88.2,36.4,29.42,West,273,16.0,32.0,16,0.00,,CLR,0.00,VWS V14.01,2013-05-15 00:21:00,
2013-05-14 19:26:00,87.6,37.5,29.42,West,272,21.0,32.0,17,0.00,,CLR,0.00,VWS V14.01,2013-05-15 00:26:00,
2013-05-14 19:30:00,92.5,38.2,29.41,West,263,15.0,31.0,15,0.00,,,0.00,VWS V15.00,2013-05-15 00:30:00,
2013-05-14 19:31:00,86.7,38.2,29.44,West,269,10.0,22.0,18,0.00,,CLR,0.00,VWS V14.01,2013-05-15 00:31:00,
2013-05-14 19:36:00,85.7,37.4,29.44,WNW,290,20.0,31.0,18,0.00,,CLR,0.00,VWS V14.01,2013-05-15 00:36:00,
2013-05-14 19:41:00,84.9,36.7,29.44,WNW,285,7.0,31.0,18,0.00,,CLR,0.00,VWS V14.01,2013-05-15 00:41:00,
2013-05-14 19:45:00,91.6,39.1,29.41,West,271,14.0,28.0,16,0.00,,,0.00,VWS V15.00,2013-05-15 00:45:00,
2013-05-14 19:46:00,84.1,34.6,29.45,WNW,293,7.0,25.0,17,0.00,,CLR,0.00,VWS V14.01,2013-05-15 00:46:00,
2013-05-14 19:51:00,83.8,34.4,29.45,WSW,243,28.0,28.0,17,0.00,,CLR,0.00,VWS V14.01,2013-05-15 00:51:00,
2013-05-14 19:56:00,83.2,33.9,29.45,WNW,291,4.0,28.0,17,0.00,,CLR,0.00,VWS V14.01,2013-05-15 00:56:00,
2013-05-14 20:00:00,89.9,34.4,29.41,WSW,252,25.0,29.0,14,0.00,,,0.00,VWS V15.00,2013-05-15 01:00:00,
2013-05-14 20:01:00,82.4,33.2,29.46,WNW,298,19.0,29.0,17,0.00,,CLR,0.00,VWS V14.01,2013-05-15 01:01:00,
2013-05-14 20:06:00,82.0,32.9,29.46,WSW,253,12.0,29.0,17,0.00,,CLR,0.00,VWS V14.01,2013-05-15 01:06:00,
2013-05-14 20:11:00,81.4,32.5,29.46,West,281,24.0,29.0,17,0.00,,CLR,0.00,VWS V14.01,2013-05-15 01:11:00,
2013-05-14 20:15:00,88.6,35.1,29.42,WNW,292,9.0,32.0,15,0.00,,,0.00,VWS V15.00,2013-05-15 01:15:00,
2013-05-14 20:16:00,80.9,32.0,29.47,WNW,292,16.0,24.0,17,0.00,,CLR,0.00,VWS V14.01,2013-05-15 01:16:00,
2013-05-14 20:21:00,80.3,33.0,29.47,NW,314,13.0,24.0,18,0.00,,CLR,0.00,VWS V14.01,2013-05-15 01:21:00,
2013-05-14 20:26:00,79.6,32.4,29.47,WNW,293,12.0,24.0,18,0.00,,CLR,0.00,VWS V14.01,2013-05-15 01:26:00,
2013-05-14 20:30:00,87.0,37.0,29.44,WNW,297,21.0,32.0,17,0.00,,,0.00,VWS V15.00,2013-05-15 01:30:00,
2013-05-14 20:31:00,79.4,33.6,29.49,NW,314,10.0,25.0,19,0.00,,CLR,0.00,VWS V14.01,2013-05-15 01:31:00,
2013-05-14 20:36:00,78.8,34.4,29.49,West,280,16.0,30.0,20,0.00,,CLR,0.00,VWS V14.01,2013-05-15 01:36:00,
2013-05-14 20:41:00,78.3,34.0,29.49,WNW,297,17.0,30.0,20,0.00,,CLR,0.00,VWS V14.01,2013-05-15 01:41:00,
2013-05-14 20:45:00,84.3,36.2,29.45,WNW,291,11.0,31.0,18,0.00,,,0.00,VWS V15.00,2013-05-15 01:45:00,
2013-05-14 20:47:00,77.7,33.5,29.50,WNW,293,20.0,21.0,20,0.00,,CLR,0.00,VWS V14.01,2013-05-15 01:47:00,
2013-05-14 20:52:00,77.2,34.3,29.50,NW,319,4.0,27.0,21,0.00,,CLR,0.00,VWS V14.01,2013-05-15 01:52:00,
2013-05-14 20:57:00,76.8,34.0,29.50,WNW,293,8.0,27.0,21,0.00,,CLR,0.00,VWS V14.01,2013-05-15 01:57:00,
2013-05-14 21:00:00,82.8,35.0,29.46,WNW,293,16.0,32.0,18,0.00,,,0.00,VWS V15.00,2013-05-15 02:00:00,
2013-05-14 21:02:00,76.3,33.5,29.51,WNW,293,10.0,16.0,21,0.00,,CLR,0.00,VWS V14.01,2013-05-15 02:02:00,
2013-05-14 21:07:00,76.0,34.5,29.51,WNW,291,9.0,22.0,22,0.00,,CLR,0.00,VWS V14.01,2013-05-15 02:07:00,
2013-05-14 21:12:00,76.0,34.5,29.51,WNW,289,12.0,22.0,22,0.00,,CLR,0.00,VWS V14.01,2013-05-15 02:12:00,
2013-05-14 21:15:00,81.1,33.6,29.47,NW,313,5.0,29.0,18,0.00,,,0.00,VWS V15.00,2013-05-15 02:15:00,
2013-05-14 21:17:00,76.0,34.5,29.52,WNW,284,4.0,18.0,22,0.00,,CLR,0.00,VWS V14.01,2013-05-15 02:17:00,
2013-05-14 21:22:00,75.8,35.4,29.52,WNW,293,16.0,20.0,23,0.00,,CLR,0.00,VWS V14.01,2013-05-15 02:22:00,
2013-05-14 21:27:00,75.3,35.0,29.52,WNW,290,6.0,20.0,23,0.00,,CLR,0.00,VWS V14.01,2013-05-15 02:27:00,
2013-05-14 21:30:00,79.4,34.9,29.49,NW,314,19.0,33.0,20,0.00,,,0.00,VWS V15.00,2013-05-15 02:30:00,
2013-05-14 21:32:00,75.1,34.8,29.53,WNW,285,13.0,14.0,23,0.00,,CLR,0.00,VWS V14.01,2013-05-15 02:32:00,
2013-05-14 21:37:00,74.4,36.3,29.53,WNW,283,7.0,17.0,25,0.00,,CLR,0.00,VWS V14.01,2013-05-15 02:37:00,
2013-05-14 21:42:00,74.0,36.0,29.53,WNW,292,10.0,17.0,25,0.00,,CLR,0.00,VWS V14.01,2013-05-15 02:42:00,
2013-05-14 21:45:00,77.9,33.6,29.50,North,357,17.0,30.0,20,0.00,,,0.00,VWS V15.00,2013-05-15 02:45:00,
2013-05-14 21:47:00,73.9,36.9,29.53,WNW,295,9.0,19.0,26,0.00,,CLR,0.00,VWS V14.01,2013-05-15 02:47:00,
2013-05-14 21:52:00,73.5,36.5,29.53,WNW,299,5.0,19.0,26,0.00,,CLR,0.00,VWS V14.01,2013-05-15 02:52:00,
2013-05-14 21:57:00,73.2,36.3,29.53,WNW,292,3.0,19.0,26,0.00,,CLR,0.00,VWS V14.01,2013-05-15 02:57:00,
2013-05-14 22:00:00,76.5,33.7,29.51,NNW,346,4.0,27.0,21,0.00,,,0.00,VWS V15.00,2013-05-15 03:00:00,
2013-05-14 22:02:00,73.0,37.1,29.55,WNW,291,14.0,18.0,27,0.00,,CLR,0.00,VWS V14.01,2013-05-15 03:02:00,
2013-05-14 22:07:00,72.8,37.8,29.55,NW,326,3.0,18.0,28,0.00,,CLR,0.00,VWS V14.01,2013-05-15 03:07:00,
2013-05-14 22:12:00,72.5,36.7,29.55,WNW,293,16.0,18.0,27,0.00,,CLR,0.00,VWS V14.01,2013-05-15 03:12:00,
2013-05-14 22:15:00,76.0,34.5,29.52,West,262,15.0,22.0,22,0.00,,,0.00,VWS V15.00,2013-05-15 03:15:00,
2013-05-14 22:17:00,72.0,37.1,29.56,NW,305,5.0,19.0,28,0.00,,CLR,0.00,VWS V14.01,2013-05-15 03:17:00,
2013-05-14 22:22:00,71.8,38.7,29.56,WNW,289,12.0,19.0,30,0.00,,CLR,0.00,VWS V14.01,2013-05-15 03:22:00,
2013-05-14 22:27:00,71.8,39.6,29.56,NW,311,11.0,19.0,31,0.00,,CLR,0.00,VWS V14.01,2013-05-15 03:27:00,
2013-05-14 22:30:00,75.3,35.0,29.53,WNW,287,9.0,20.0,23,0.00,,,0.00,VWS V15.00,2013-05-15 03:30:00,
2013-05-14 22:32:00,71.8,39.6,29.56,WNW,296,19.0,24.0,31,0.00,,CLR,0.00,VWS V14.01,2013-05-15 03:32:00,
2013-05-14 22:37:00,71.8,40.4,29.56,West,275,15.0,24.0,32,0.00,,CLR,0.00,VWS V14.01,2013-05-15 03:37:00,
2013-05-14 22:42:00,71.5,41.7,29.56,NW,319,14.0,24.0,34,0.00,,CLR,0.00,VWS V14.01,2013-05-15 03:42:00,
2013-05-14 22:45:00,73.9,35.9,29.53,WNW,286,4.0,17.0,25,0.00,,,0.00,VWS V15.00,2013-05-15 03:45:00,
2013-05-14 22:47:00,71.1,41.3,29.57,WNW,284,11.0,17.0,34,0.00,,CLR,0.00,VWS V14.01,2013-05-15 03:47:00,
2013-05-14 22:52:00,70.6,41.7,29.57,WNW,292,13.0,17.0,35,0.00,,CLR,0.00,VWS V14.01,2013-05-15 03:52:00,
2013-05-14 22:57:00,70.3,42.1,29.57,WNW,293,19.0,19.0,36,0.00,,CLR,0.00,VWS V14.01,2013-05-15 03:57:00,
2013-05-14 23:00:00,73.0,37.1,29.55,NW,309,6.0,19.0,27,0.00,,,0.00,VWS V15.00,2013-05-15 04:00:00,
2013-05-14 23:01:00,69.8,41.7,29.57,WNW,291,11.0,12.0,36,0.00,,CLR,0.00,VWS V14.01,2013-05-15 04:01:00,
2013-05-14 23:02:00,69.8,41.7,29.57,WNW,291,9.0,13.0,36,0.00,,CLR,0.00,VWS V14.01,2013-05-15 04:02:00,
2013-05-14 23:03:00,69.6,42.2,29.57,NW,307,5.0,15.0,37,0.00,,CLR,0.00,VWS V14.01,2013-05-15 04:03:00,
2013-05-14 23:06:00,69.4,42.0,29.57,NW,305,13.0,23.0,37,0.00,,CLR,0.00,VWS V14.01,2013-05-15 04:06:00,
2013-05-14 23:11:00,69.6,42.9,29.57,NNW,328,14.0,23.0,38,0.00,,CLR,0.00,VWS V14.01,2013-05-15 04:11:00,
2013-05-14 23:15:00,72.1,37.2,29.56,WNW,291,19.0,19.0,28,0.00,,,0.00,VWS V15.00,2013-05-15 04:15:00,
2013-05-14 23:16:00,69.3,43.3,29.57,NW,311,17.0,19.0,39,0.00,,CLR,0.00,VWS V14.01,2013-05-15 04:16:00,
2013-05-14 23:21:00,69.3,43.3,29.57,WNW,293,12.0,28.0,39,0.00,,CLR,0.00,VWS V14.01,2013-05-15 04:21:00,
2013-05-14 23:26:00,69.3,44.0,29.57,WNW,296,14.0,28.0,40,0.00,,CLR,0.00,VWS V14.01,2013-05-15 04:26:00,
2013-05-14 23:30:00,71.8,39.6,29.56,WNW,293,11.0,26.0,31,0.00,,,0.00,VWS V15.00,2013-05-15 04:30:00,
2013-05-14 23:32:00,68.8,44.2,29.58,WNW,284,26.0,26.0,41,0.00,,CLR,0.00,VWS V14.01,2013-05-15 04:32:00,
2013-05-14 23:37:00,68.8,44.2,29.58,West,264,12.0,26.0,41,0.00,,CLR,0.00,VWS V14.01,2013-05-15 04:37:00,
2013-05-14 23:42:00,68.4,43.8,29.58,WNW,292,10.0,26.0,41,0.00,,CLR,0.00,VWS V14.01,2013-05-15 04:42:00,
2013-05-14 23:45:00,71.3,41.5,29.57,WNW,291,11.0,24.0,34,0.00,,,0.00,VWS V15.00,2013-05-15 04:45:00,
2013-05-14 23:47:00,68.3,44.3,29.60,WNW,303,14.0,21.0,42,0.00,,CLR,0.00,VWS V14.01,2013-05-15 04:47:00,
2013-05-14 23:52:00,67.9,44.0,29.60,NW,324,11.0,21.0,42,0.00,,CLR,0.00,VWS V14.01,2013-05-15 04:52:00,
2013-05-14 23:57:00,67.3,44.7,29.60,WNW,301,4.0,21.0,44,0.00,,CLR,0.00,VWS V14.01,2013-05-15 04:57:00,